sensor_id;sensor_type;location;lat;lon;timestamp;P1;durP1;ratioP1;P2;durP2;ratioP2
7845;SDS011;3968;51.424;6.788;2023-02-12T00:01:39;56.57;;;38.53;;
7845;SDS011;3968;51.424;6.788;2023-02-12T00:04:05;57.10;;;38.43;;
7845;SDS011;3968;51.424;6.788;2023-02-12T00:06:30;60.17;;;38.80;;
7845;SDS011;3968;51.424;6.788;2023-02-12T00:08:56;56.30;;;38.70;;
7845;SDS011;3968;51.424;6.788;2023-02-12T00:11:23;57.20;;;39.10;;
7845;SDS011;3968;51.424;6.788;2023-02-12T00:13:51;51.83;;;37.57;;
7845;SDS011;3968;51.424;6.788;2023-02-12T00:16:19;57.43;;;38.10;;
7845;SDS011;3968;51.424;6.788;2023-02-12T00:18:47;56.17;;;39.53;;
7845;SDS011;3968;51.424;6.788;2023-02-12T00:21:17;54.00;;;37.10;;
7845;SDS011;3968;51.424;6.788;2023-02-12T00:23:43;55.77;;;37.57;;
7845;SDS011;3968;51.424;6.788;2023-02-12T00:26:10;62.30;;;38.27;;
7845;SDS011;3968;51.424;6.788;2023-02-12T00:28:40;57.10;;;40.67;;
7845;SDS011;3968;51.424;6.788;2023-02-12T00:31:07;62.40;;;41.40;;
7845;SDS011;3968;51.424;6.788;2023-02-12T00:33:37;63.07;;;43.30;;
7845;SDS011;3968;51.424;6.788;2023-02-12T00:36:03;62.67;;;43.90;;
7845;SDS011;3968;51.424;6.788;2023-02-12T00:38:29;64.47;;;44.43;;
7845;SDS011;3968;51.424;6.788;2023-02-12T00:40:55;65.93;;;44.93;;
7845;SDS011;3968;51.424;6.788;2023-02-12T00:43:21;65.07;;;44.00;;
7845;SDS011;3968;51.424;6.788;2023-02-12T00:45:47;65.33;;;44.13;;
7845;SDS011;3968;51.424;6.788;2023-02-12T00:48:13;67.20;;;48.10;;
7845;SDS011;3968;51.424;6.788;2023-02-12T00:50:39;70.33;;;49.20;;
7845;SDS011;3968;51.424;6.788;2023-02-12T00:53:05;64.87;;;45.43;;
7845;SDS011;3968;51.424;6.788;2023-02-12T00:55:32;64.10;;;45.53;;
7845;SDS011;3968;51.424;6.788;2023-02-12T00:57:58;69.47;;;47.30;;
7845;SDS011;3968;51.424;6.788;2023-02-12T01:00:24;70.47;;;49.00;;
7845;SDS011;3968;51.424;6.788;2023-02-12T01:02:51;64.53;;;44.50;;
7845;SDS011;3968;51.424;6.788;2023-02-12T01:05:16;65.30;;;43.37;;
7845;SDS011;3968;51.424;6.788;2023-02-12T01:07:43;61.77;;;42.47;;
7845;SDS011;3968;51.424;6.788;2023-02-12T01:10:13;62.97;;;43.23;;
7845;SDS011;3968;51.424;6.788;2023-02-12T01:12:39;62.63;;;40.70;;
7845;SDS011;3968;51.424;6.788;2023-02-12T01:15:04;62.47;;;41.67;;
7845;SDS011;3968;51.424;6.788;2023-02-12T01:17:30;57.73;;;39.37;;
7845;SDS011;3968;51.424;6.788;2023-02-12T01:19:56;58.40;;;39.13;;
7845;SDS011;3968;51.424;6.788;2023-02-12T01:22:23;61.67;;;40.73;;
7845;SDS011;3968;51.424;6.788;2023-02-12T01:24:49;58.67;;;40.70;;
7845;SDS011;3968;51.424;6.788;2023-02-12T01:27:14;58.03;;;37.73;;
7845;SDS011;3968;51.424;6.788;2023-02-12T01:29:40;56.53;;;37.87;;
7845;SDS011;3968;51.424;6.788;2023-02-12T01:32:08;54.33;;;37.13;;
7845;SDS011;3968;51.424;6.788;2023-02-12T01:34:34;55.93;;;38.23;;
7845;SDS011;3968;51.424;6.788;2023-02-12T01:37:00;57.37;;;39.40;;
7845;SDS011;3968;51.424;6.788;2023-02-12T01:39:26;60.17;;;39.23;;
7845;SDS011;3968;51.424;6.788;2023-02-12T01:41:52;53.97;;;37.93;;
7845;SDS011;3968;51.424;6.788;2023-02-12T01:44:19;54.53;;;38.33;;
7845;SDS011;3968;51.424;6.788;2023-02-12T01:46:53;56.40;;;38.67;;
7845;SDS011;3968;51.424;6.788;2023-02-12T01:49:23;54.90;;;36.83;;
7845;SDS011;3968;51.424;6.788;2023-02-12T01:54:37;57.40;;;37.40;;
7845;SDS011;3968;51.424;6.788;2023-02-12T01:57:04;55.43;;;35.83;;
7845;SDS011;3968;51.424;6.788;2023-02-12T01:59:31;58.47;;;38.53;;
7845;SDS011;3968;51.424;6.788;2023-02-12T02:01:58;57.17;;;37.03;;
7845;SDS011;3968;51.424;6.788;2023-02-12T02:04:28;56.90;;;37.20;;
7845;SDS011;3968;51.424;6.788;2023-02-12T02:06:58;53.57;;;37.70;;
7845;SDS011;3968;51.424;6.788;2023-02-12T02:09:27;53.90;;;36.07;;
7845;SDS011;3968;51.424;6.788;2023-02-12T02:11:55;55.70;;;36.80;;
7845;SDS011;3968;51.424;6.788;2023-02-12T02:14:39;54.17;;;38.13;;
7845;SDS011;3968;51.424;6.788;2023-02-12T02:34:06;54.03;;;37.43;;
7845;SDS011;3968;51.424;6.788;2023-02-12T02:39:49;53.33;;;37.73;;
7845;SDS011;3968;51.424;6.788;2023-02-12T02:42:24;53.90;;;37.13;;
7845;SDS011;3968;51.424;6.788;2023-02-12T02:45:18;54.53;;;36.57;;
7845;SDS011;3968;51.424;6.788;2023-02-12T02:50:33;52.67;;;36.43;;
7845;SDS011;3968;51.424;6.788;2023-02-12T02:53:07;55.47;;;37.07;;
7845;SDS011;3968;51.424;6.788;2023-02-12T02:55:38;55.57;;;37.77;;
7845;SDS011;3968;51.424;6.788;2023-02-12T02:58:12;54.87;;;37.90;;
7845;SDS011;3968;51.424;6.788;2023-02-12T03:05:48;57.63;;;39.73;;
7845;SDS011;3968;51.424;6.788;2023-02-12T03:08:21;58.63;;;37.13;;
7845;SDS011;3968;51.424;6.788;2023-02-12T03:10:55;55.20;;;36.47;;
7845;SDS011;3968;51.424;6.788;2023-02-12T03:16:17;55.07;;;37.47;;
7845;SDS011;3968;51.424;6.788;2023-02-12T03:19:00;57.87;;;36.70;;
7845;SDS011;3968;51.424;6.788;2023-02-12T03:21:51;52.27;;;34.63;;
7845;SDS011;3968;51.424;6.788;2023-02-12T03:24:26;54.13;;;36.73;;
7845;SDS011;3968;51.424;6.788;2023-02-12T03:29:31;53.17;;;35.23;;
7845;SDS011;3968;51.424;6.788;2023-02-12T03:32:03;56.27;;;37.33;;
7845;SDS011;3968;51.424;6.788;2023-02-12T03:34:50;52.90;;;36.10;;
7845;SDS011;3968;51.424;6.788;2023-02-12T03:39:54;50.77;;;35.73;;
7845;SDS011;3968;51.424;6.788;2023-02-12T03:45:13;54.87;;;36.03;;
7845;SDS011;3968;51.424;6.788;2023-02-12T03:48:07;54.47;;;36.33;;
7845;SDS011;3968;51.424;6.788;2023-02-12T03:51:17;53.33;;;35.93;;
7845;SDS011;3968;51.424;6.788;2023-02-12T03:53:46;53.43;;;35.57;;
7845;SDS011;3968;51.424;6.788;2023-02-12T03:56:21;59.07;;;36.67;;
7845;SDS011;3968;51.424;6.788;2023-02-12T03:58:51;53.87;;;35.63;;
7845;SDS011;3968;51.424;6.788;2023-02-12T04:01:16;54.97;;;35.90;;
7845;SDS011;3968;51.424;6.788;2023-02-12T04:03:42;55.20;;;37.80;;
7845;SDS011;3968;51.424;6.788;2023-02-12T04:06:17;57.17;;;36.07;;
7845;SDS011;3968;51.424;6.788;2023-02-12T04:08:44;57.00;;;37.57;;
7845;SDS011;3968;51.424;6.788;2023-02-12T04:11:22;55.30;;;36.90;;
7845;SDS011;3968;51.424;6.788;2023-02-12T04:14:17;54.37;;;35.77;;
7845;SDS011;3968;51.424;6.788;2023-02-12T04:16:59;58.80;;;37.60;;
7845;SDS011;3968;51.424;6.788;2023-02-12T04:25:00;54.50;;;36.90;;
7845;SDS011;3968;51.424;6.788;2023-02-12T04:30:19;53.77;;;36.10;;
7845;SDS011;3968;51.424;6.788;2023-02-12T04:32:50;53.67;;;35.20;;
7845;SDS011;3968;51.424;6.788;2023-02-12T04:40:37;56.37;;;36.53;;
7845;SDS011;3968;51.424;6.788;2023-02-12T04:43:04;53.93;;;36.03;;
7845;SDS011;3968;51.424;6.788;2023-02-12T04:45:31;52.53;;;35.50;;
7845;SDS011;3968;51.424;6.788;2023-02-12T04:47:58;53.13;;;35.27;;
7845;SDS011;3968;51.424;6.788;2023-02-12T04:50:24;55.80;;;37.40;;
7845;SDS011;3968;51.424;6.788;2023-02-12T04:52:50;54.17;;;35.80;;
7845;SDS011;3968;51.424;6.788;2023-02-12T04:55:16;56.83;;;36.30;;
7845;SDS011;3968;51.424;6.788;2023-02-12T04:57:42;59.63;;;37.93;;
7845;SDS011;3968;51.424;6.788;2023-02-12T05:00:10;56.90;;;37.87;;
7845;SDS011;3968;51.424;6.788;2023-02-12T05:02:37;56.47;;;37.77;;
7845;SDS011;3968;51.424;6.788;2023-02-12T05:05:03;54.93;;;36.13;;
7845;SDS011;3968;51.424;6.788;2023-02-12T05:07:28;56.20;;;35.80;;
7845;SDS011;3968;51.424;6.788;2023-02-12T05:09:54;55.70;;;37.67;;
7845;SDS011;3968;51.424;6.788;2023-02-12T05:12:19;56.57;;;35.50;;
7845;SDS011;3968;51.424;6.788;2023-02-12T05:14:45;58.50;;;37.13;;
7845;SDS011;3968;51.424;6.788;2023-02-12T05:17:11;50.50;;;34.07;;
7845;SDS011;3968;51.424;6.788;2023-02-12T05:19:36;54.93;;;36.17;;
7845;SDS011;3968;51.424;6.788;2023-02-12T05:22:02;55.67;;;36.97;;
7845;SDS011;3968;51.424;6.788;2023-02-12T05:24:28;52.57;;;35.57;;
7845;SDS011;3968;51.424;6.788;2023-02-12T05:26:53;54.37;;;35.50;;
7845;SDS011;3968;51.424;6.788;2023-02-12T05:29:19;57.23;;;37.23;;
7845;SDS011;3968;51.424;6.788;2023-02-12T05:31:44;56.40;;;35.90;;
7845;SDS011;3968;51.424;6.788;2023-02-12T05:34:10;55.07;;;36.37;;
7845;SDS011;3968;51.424;6.788;2023-02-12T05:36:37;52.33;;;35.10;;
7845;SDS011;3968;51.424;6.788;2023-02-12T05:39:05;50.17;;;34.77;;
7845;SDS011;3968;51.424;6.788;2023-02-12T05:41:31;55.83;;;35.70;;
7845;SDS011;3968;51.424;6.788;2023-02-12T05:44:00;54.03;;;35.83;;
7845;SDS011;3968;51.424;6.788;2023-02-12T05:46:26;55.83;;;35.50;;
7845;SDS011;3968;51.424;6.788;2023-02-12T05:48:52;53.90;;;35.00;;
7845;SDS011;3968;51.424;6.788;2023-02-12T05:51:18;55.77;;;35.60;;
7845;SDS011;3968;51.424;6.788;2023-02-12T05:53:47;53.87;;;36.20;;
7845;SDS011;3968;51.424;6.788;2023-02-12T05:56:14;55.83;;;35.23;;
7845;SDS011;3968;51.424;6.788;2023-02-12T05:58:46;53.70;;;34.77;;
7845;SDS011;3968;51.424;6.788;2023-02-12T06:01:20;55.40;;;36.13;;
7845;SDS011;3968;51.424;6.788;2023-02-12T06:03:48;54.80;;;35.60;;
7845;SDS011;3968;51.424;6.788;2023-02-12T06:06:13;57.27;;;35.17;;
7845;SDS011;3968;51.424;6.788;2023-02-12T06:08:39;55.10;;;36.73;;
7845;SDS011;3968;51.424;6.788;2023-02-12T06:11:06;59.37;;;36.57;;
7845;SDS011;3968;51.424;6.788;2023-02-12T06:13:37;57.87;;;37.43;;
7845;SDS011;3968;51.424;6.788;2023-02-12T06:16:03;55.50;;;35.43;;
7845;SDS011;3968;51.424;6.788;2023-02-12T06:18:29;59.63;;;36.47;;
7845;SDS011;3968;51.424;6.788;2023-02-12T06:20:55;53.73;;;36.33;;
7845;SDS011;3968;51.424;6.788;2023-02-12T06:23:21;58.70;;;37.20;;
7845;SDS011;3968;51.424;6.788;2023-02-12T06:25:48;53.47;;;35.43;;
7845;SDS011;3968;51.424;6.788;2023-02-12T06:28:15;54.70;;;36.23;;
7845;SDS011;3968;51.424;6.788;2023-02-12T06:30:41;50.43;;;34.37;;
7845;SDS011;3968;51.424;6.788;2023-02-12T06:33:07;57.63;;;36.10;;
7845;SDS011;3968;51.424;6.788;2023-02-12T06:35:34;56.00;;;36.43;;
7845;SDS011;3968;51.424;6.788;2023-02-12T06:38:00;56.50;;;36.53;;
7845;SDS011;3968;51.424;6.788;2023-02-12T06:40:26;60.63;;;36.23;;
7845;SDS011;3968;51.424;6.788;2023-02-12T06:42:51;55.60;;;35.97;;
7845;SDS011;3968;51.424;6.788;2023-02-12T06:45:17;53.83;;;35.53;;
7845;SDS011;3968;51.424;6.788;2023-02-12T06:47:42;54.13;;;35.83;;
7845;SDS011;3968;51.424;6.788;2023-02-12T06:50:08;57.23;;;37.00;;
7845;SDS011;3968;51.424;6.788;2023-02-12T06:52:34;59.20;;;36.03;;
7845;SDS011;3968;51.424;6.788;2023-02-12T06:54:59;53.07;;;35.47;;
7845;SDS011;3968;51.424;6.788;2023-02-12T06:57:25;54.30;;;35.60;;
7845;SDS011;3968;51.424;6.788;2023-02-12T06:59:50;54.77;;;37.13;;
7845;SDS011;3968;51.424;6.788;2023-02-12T07:02:16;53.73;;;36.27;;
7845;SDS011;3968;51.424;6.788;2023-02-12T07:04:41;55.90;;;35.50;;
7845;SDS011;3968;51.424;6.788;2023-02-12T07:07:07;51.27;;;35.77;;
7845;SDS011;3968;51.424;6.788;2023-02-12T07:09:33;52.60;;;35.73;;
7845;SDS011;3968;51.424;6.788;2023-02-12T07:11:58;54.07;;;35.60;;
7845;SDS011;3968;51.424;6.788;2023-02-12T07:14:24;52.67;;;34.63;;
7845;SDS011;3968;51.424;6.788;2023-02-12T07:16:52;57.57;;;37.20;;
7845;SDS011;3968;51.424;6.788;2023-02-12T07:19:18;53.83;;;36.20;;
7845;SDS011;3968;51.424;6.788;2023-02-12T07:21:44;54.50;;;35.87;;
7845;SDS011;3968;51.424;6.788;2023-02-12T07:24:10;59.57;;;35.97;;
7845;SDS011;3968;51.424;6.788;2023-02-12T07:26:37;55.50;;;36.37;;
7845;SDS011;3968;51.424;6.788;2023-02-12T07:29:03;56.93;;;35.90;;
7845;SDS011;3968;51.424;6.788;2023-02-12T07:31:29;58.43;;;37.43;;
7845;SDS011;3968;51.424;6.788;2023-02-12T07:33:55;52.33;;;34.37;;
7845;SDS011;3968;51.424;6.788;2023-02-12T07:36:23;54.33;;;36.47;;
7845;SDS011;3968;51.424;6.788;2023-02-12T07:38:52;55.57;;;35.67;;
7845;SDS011;3968;51.424;6.788;2023-02-12T07:41:22;58.40;;;36.47;;
7845;SDS011;3968;51.424;6.788;2023-02-12T07:43:59;55.67;;;36.87;;
7845;SDS011;3968;51.424;6.788;2023-02-12T07:46:32;58.73;;;37.67;;
7845;SDS011;3968;51.424;6.788;2023-02-12T07:49:00;54.50;;;35.00;;
7845;SDS011;3968;51.424;6.788;2023-02-12T07:51:28;56.30;;;35.73;;
7845;SDS011;3968;51.424;6.788;2023-02-12T07:53:53;57.40;;;36.20;;
7845;SDS011;3968;51.424;6.788;2023-02-12T07:56:20;58.03;;;37.53;;
7845;SDS011;3968;51.424;6.788;2023-02-12T07:58:48;55.13;;;34.90;;
7845;SDS011;3968;51.424;6.788;2023-02-12T08:03:43;53.70;;;35.30;;
7845;SDS011;3968;51.424;6.788;2023-02-12T08:06:13;58.53;;;36.83;;
7845;SDS011;3968;51.424;6.788;2023-02-12T08:08:41;56.30;;;36.17;;
7845;SDS011;3968;51.424;6.788;2023-02-12T08:11:07;54.23;;;36.23;;
7845;SDS011;3968;51.424;6.788;2023-02-12T08:13:35;55.03;;;36.43;;
7845;SDS011;3968;51.424;6.788;2023-02-12T08:16:02;59.57;;;36.73;;
7845;SDS011;3968;51.424;6.788;2023-02-12T08:18:30;55.97;;;36.07;;
7845;SDS011;3968;51.424;6.788;2023-02-12T08:21:03;61.77;;;37.53;;
7845;SDS011;3968;51.424;6.788;2023-02-12T08:23:31;56.80;;;37.40;;
7845;SDS011;3968;51.424;6.788;2023-02-12T08:26:04;56.37;;;37.43;;
7845;SDS011;3968;51.424;6.788;2023-02-12T08:28:30;56.13;;;36.70;;
7845;SDS011;3968;51.424;6.788;2023-02-12T08:30:59;55.03;;;37.00;;
7845;SDS011;3968;51.424;6.788;2023-02-12T08:33:29;62.73;;;37.47;;
7845;SDS011;3968;51.424;6.788;2023-02-12T08:36:08;57.17;;;36.60;;
7845;SDS011;3968;51.424;6.788;2023-02-12T08:38:36;55.53;;;35.80;;
7845;SDS011;3968;51.424;6.788;2023-02-12T08:41:03;59.40;;;37.60;;
7845;SDS011;3968;51.424;6.788;2023-02-12T08:43:33;60.50;;;37.63;;
7845;SDS011;3968;51.424;6.788;2023-02-12T08:46:00;55.80;;;37.30;;
7845;SDS011;3968;51.424;6.788;2023-02-12T08:48:30;64.77;;;40.03;;
7845;SDS011;3968;51.424;6.788;2023-02-12T08:51:02;66.60;;;41.80;;
7845;SDS011;3968;51.424;6.788;2023-02-12T08:53:28;67.73;;;42.73;;
7845;SDS011;3968;51.424;6.788;2023-02-12T08:55:54;74.83;;;44.37;;
7845;SDS011;3968;51.424;6.788;2023-02-12T08:58:20;71.73;;;44.67;;
7845;SDS011;3968;51.424;6.788;2023-02-12T09:00:45;66.70;;;43.40;;
7845;SDS011;3968;51.424;6.788;2023-02-12T09:03:11;72.00;;;46.07;;
7845;SDS011;3968;51.424;6.788;2023-02-12T09:05:37;70.43;;;45.67;;
7845;SDS011;3968;51.424;6.788;2023-02-12T09:08:03;79.03;;;50.00;;
7845;SDS011;3968;51.424;6.788;2023-02-12T09:10:29;73.70;;;46.80;;
7845;SDS011;3968;51.424;6.788;2023-02-12T09:12:55;68.17;;;43.97;;
7845;SDS011;3968;51.424;6.788;2023-02-12T09:15:20;68.13;;;43.77;;
7845;SDS011;3968;51.424;6.788;2023-02-12T09:17:46;65.90;;;43.10;;
7845;SDS011;3968;51.424;6.788;2023-02-12T09:20:11;63.77;;;42.00;;
7845;SDS011;3968;51.424;6.788;2023-02-12T09:22:37;61.43;;;41.53;;
7845;SDS011;3968;51.424;6.788;2023-02-12T09:25:04;59.67;;;40.83;;
7845;SDS011;3968;51.424;6.788;2023-02-12T09:27:30;62.50;;;41.53;;
7845;SDS011;3968;51.424;6.788;2023-02-12T09:29:56;64.87;;;41.47;;
7845;SDS011;3968;51.424;6.788;2023-02-12T09:32:21;66.07;;;41.17;;
7845;SDS011;3968;51.424;6.788;2023-02-12T09:34:47;62.20;;;40.27;;
7845;SDS011;3968;51.424;6.788;2023-02-12T09:37:12;61.10;;;40.93;;
7845;SDS011;3968;51.424;6.788;2023-02-12T09:39:38;59.80;;;39.13;;
7845;SDS011;3968;51.424;6.788;2023-02-12T09:42:19;57.40;;;38.53;;
7845;SDS011;3968;51.424;6.788;2023-02-12T09:47:46;53.60;;;36.37;;
7845;SDS011;3968;51.424;6.788;2023-02-12T09:53:05;54.10;;;36.90;;
7845;SDS011;3968;51.424;6.788;2023-02-12T09:55:33;54.57;;;36.23;;
7845;SDS011;3968;51.424;6.788;2023-02-12T09:58:00;55.07;;;37.93;;
7845;SDS011;3968;51.424;6.788;2023-02-12T10:00:29;53.60;;;35.87;;
7845;SDS011;3968;51.424;6.788;2023-02-12T10:02:56;52.13;;;35.57;;
7845;SDS011;3968;51.424;6.788;2023-02-12T10:05:28;55.20;;;35.10;;
7845;SDS011;3968;51.424;6.788;2023-02-12T10:16:16;47.47;;;32.87;;
7845;SDS011;3968;51.424;6.788;2023-02-12T10:27:15;50.17;;;34.07;;
7845;SDS011;3968;51.424;6.788;2023-02-12T10:29:42;46.87;;;32.50;;
7845;SDS011;3968;51.424;6.788;2023-02-12T10:32:43;45.47;;;33.07;;
7845;SDS011;3968;51.424;6.788;2023-02-12T10:35:10;44.23;;;31.93;;
7845;SDS011;3968;51.424;6.788;2023-02-12T10:40:22;94.60;;;60.83;;
7845;SDS011;3968;51.424;6.788;2023-02-12T10:42:52;294.50;;;197.70;;
7845;SDS011;3968;51.424;6.788;2023-02-12T10:45:20;152.23;;;99.73;;
7845;SDS011;3968;51.424;6.788;2023-02-12T10:47:48;52.40;;;38.10;;
7845;SDS011;3968;51.424;6.788;2023-02-12T10:51:16;47.63;;;33.10;;
7845;SDS011;3968;51.424;6.788;2023-02-12T10:53:25;46.70;;;31.93;;
7845;SDS011;3968;51.424;6.788;2023-02-12T10:58:57;45.40;;;32.70;;
7845;SDS011;3968;51.424;6.788;2023-02-12T11:03:54;45.80;;;32.10;;
7845;SDS011;3968;51.424;6.788;2023-02-12T11:06:22;46.80;;;32.30;;
7845;SDS011;3968;51.424;6.788;2023-02-12T11:08:53;46.77;;;32.23;;
7845;SDS011;3968;51.424;6.788;2023-02-12T11:11:21;46.17;;;30.87;;
7845;SDS011;3968;51.424;6.788;2023-02-12T11:13:53;43.83;;;31.57;;
7845;SDS011;3968;51.424;6.788;2023-02-12T11:16:27;49.17;;;33.13;;
7845;SDS011;3968;51.424;6.788;2023-02-12T11:19:04;43.63;;;32.10;;
7845;SDS011;3968;51.424;6.788;2023-02-12T11:21:42;46.30;;;31.13;;
7845;SDS011;3968;51.424;6.788;2023-02-12T11:27:10;42.80;;;30.67;;
7845;SDS011;3968;51.424;6.788;2023-02-12T11:29:39;42.80;;;30.53;;
7845;SDS011;3968;51.424;6.788;2023-02-12T11:32:14;42.30;;;29.77;;
7845;SDS011;3968;51.424;6.788;2023-02-12T11:34:41;42.10;;;29.90;;
7845;SDS011;3968;51.424;6.788;2023-02-12T11:37:15;40.30;;;29.03;;
7845;SDS011;3968;51.424;6.788;2023-02-12T11:39:47;49.87;;;31.13;;
7845;SDS011;3968;51.424;6.788;2023-02-12T11:42:15;42.53;;;29.93;;
7845;SDS011;3968;51.424;6.788;2023-02-12T11:44:47;41.33;;;29.50;;
7845;SDS011;3968;51.424;6.788;2023-02-12T11:47:24;39.57;;;29.37;;
7845;SDS011;3968;51.424;6.788;2023-02-12T11:49:53;44.60;;;29.30;;
7845;SDS011;3968;51.424;6.788;2023-02-12T11:52:38;42.80;;;29.97;;
7845;SDS011;3968;51.424;6.788;2023-02-12T11:55:20;43.97;;;29.50;;
7845;SDS011;3968;51.424;6.788;2023-02-12T11:57:49;42.10;;;28.70;;
7845;SDS011;3968;51.424;6.788;2023-02-12T12:00:21;41.97;;;29.10;;
7845;SDS011;3968;51.424;6.788;2023-02-12T12:05:24;44.53;;;30.07;;
7845;SDS011;3968;51.424;6.788;2023-02-12T12:07:58;42.90;;;30.47;;
7845;SDS011;3968;51.424;6.788;2023-02-12T12:10:48;43.57;;;29.93;;
7845;SDS011;3968;51.424;6.788;2023-02-12T12:13:22;44.33;;;30.37;;
7845;SDS011;3968;51.424;6.788;2023-02-12T12:15:56;45.03;;;30.53;;
7845;SDS011;3968;51.424;6.788;2023-02-12T12:18:50;45.37;;;29.97;;
7845;SDS011;3968;51.424;6.788;2023-02-12T12:21:59;43.20;;;31.67;;
7845;SDS011;3968;51.424;6.788;2023-02-12T12:27:53;43.87;;;30.63;;
7845;SDS011;3968;51.424;6.788;2023-02-12T12:33:07;48.80;;;30.70;;
7845;SDS011;3968;51.424;6.788;2023-02-12T12:44:01;40.73;;;29.53;;
7845;SDS011;3968;51.424;6.788;2023-02-12T12:46:50;44.47;;;29.60;;
7845;SDS011;3968;51.424;6.788;2023-02-12T12:49:32;41.57;;;30.33;;
7845;SDS011;3968;51.424;6.788;2023-02-12T12:54:34;40.17;;;28.87;;
7845;SDS011;3968;51.424;6.788;2023-02-12T12:57:05;43.70;;;29.90;;
7845;SDS011;3968;51.424;6.788;2023-02-12T12:59:47;42.93;;;30.43;;
7845;SDS011;3968;51.424;6.788;2023-02-12T13:02:36;40.83;;;29.97;;
7845;SDS011;3968;51.424;6.788;2023-02-12T13:10:56;43.20;;;30.23;;
7845;SDS011;3968;51.424;6.788;2023-02-12T13:13:35;40.17;;;27.60;;
7845;SDS011;3968;51.424;6.788;2023-02-12T13:19:06;43.27;;;29.87;;
7845;SDS011;3968;51.424;6.788;2023-02-12T13:24:50;39.47;;;26.07;;
7845;SDS011;3968;51.424;6.788;2023-02-12T13:27:26;39.47;;;27.70;;
7845;SDS011;3968;51.424;6.788;2023-02-12T13:29:59;39.37;;;28.80;;
7845;SDS011;3968;51.424;6.788;2023-02-12T13:32:35;38.97;;;27.43;;
7845;SDS011;3968;51.424;6.788;2023-02-12T13:35:07;41.90;;;28.53;;
7845;SDS011;3968;51.424;6.788;2023-02-12T13:37:43;41.77;;;27.60;;
7845;SDS011;3968;51.424;6.788;2023-02-12T13:40:16;40.17;;;29.10;;
7845;SDS011;3968;51.424;6.788;2023-02-12T13:45:51;38.87;;;27.03;;
7845;SDS011;3968;51.424;6.788;2023-02-12T13:51:23;41.70;;;28.53;;
7845;SDS011;3968;51.424;6.788;2023-02-12T13:56:41;42.03;;;29.03;;
7845;SDS011;3968;51.424;6.788;2023-02-12T14:01:56;40.53;;;27.87;;
7845;SDS011;3968;51.424;6.788;2023-02-12T14:04:46;40.93;;;27.50;;
7845;SDS011;3968;51.424;6.788;2023-02-12T14:07:19;40.57;;;26.33;;
7845;SDS011;3968;51.424;6.788;2023-02-12T14:14:50;35.70;;;26.07;;
7845;SDS011;3968;51.424;6.788;2023-02-12T14:17:39;41.03;;;28.97;;
7845;SDS011;3968;51.424;6.788;2023-02-12T14:20:35;41.37;;;28.53;;
7845;SDS011;3968;51.424;6.788;2023-02-12T14:25:58;37.53;;;25.90;;
7845;SDS011;3968;51.424;6.788;2023-02-12T14:33:42;35.77;;;26.03;;
7845;SDS011;3968;51.424;6.788;2023-02-12T14:36:14;38.40;;;27.17;;
7845;SDS011;3968;51.424;6.788;2023-02-12T14:38:57;37.50;;;26.27;;
7845;SDS011;3968;51.424;6.788;2023-02-12T14:41:41;37.90;;;26.60;;
7845;SDS011;3968;51.424;6.788;2023-02-12T14:49:27;40.20;;;25.60;;
7845;SDS011;3968;51.424;6.788;2023-02-12T14:57:27;39.37;;;27.17;;
7845;SDS011;3968;51.424;6.788;2023-02-12T15:00:18;37.13;;;26.33;;
7845;SDS011;3968;51.424;6.788;2023-02-12T15:02:41;38.40;;;27.33;;
7845;SDS011;3968;51.424;6.788;2023-02-12T15:05:23;35.07;;;26.30;;
7845;SDS011;3968;51.424;6.788;2023-02-12T15:07:59;34.97;;;25.23;;
7845;SDS011;3968;51.424;6.788;2023-02-12T15:10:33;36.43;;;24.87;;
7845;SDS011;3968;51.424;6.788;2023-02-12T15:15:52;35.93;;;26.07;;
7845;SDS011;3968;51.424;6.788;2023-02-12T15:21:31;37.00;;;25.40;;
7845;SDS011;3968;51.424;6.788;2023-02-12T15:26:27;37.90;;;25.67;;
7845;SDS011;3968;51.424;6.788;2023-02-12T15:28:56;33.90;;;25.23;;
7845;SDS011;3968;51.424;6.788;2023-02-12T15:31:24;35.67;;;26.00;;
7845;SDS011;3968;51.424;6.788;2023-02-12T15:33:51;35.63;;;25.57;;
7845;SDS011;3968;51.424;6.788;2023-02-12T15:36:20;36.97;;;25.33;;
7845;SDS011;3968;51.424;6.788;2023-02-12T15:39:14;36.17;;;25.77;;
7845;SDS011;3968;51.424;6.788;2023-02-12T15:41:41;34.83;;;25.23;;
7845;SDS011;3968;51.424;6.788;2023-02-12T15:44:17;38.67;;;25.63;;
7845;SDS011;3968;51.424;6.788;2023-02-12T15:46:52;36.57;;;25.07;;
7845;SDS011;3968;51.424;6.788;2023-02-12T15:49:36;35.83;;;25.60;;
7845;SDS011;3968;51.424;6.788;2023-02-12T15:52:05;33.50;;;25.67;;
7845;SDS011;3968;51.424;6.788;2023-02-12T15:54:43;35.90;;;26.60;;
7845;SDS011;3968;51.424;6.788;2023-02-12T15:57:10;35.83;;;26.10;;
7845;SDS011;3968;51.424;6.788;2023-02-12T15:59:38;36.20;;;26.83;;
7845;SDS011;3968;51.424;6.788;2023-02-12T16:02:16;37.33;;;27.47;;
7845;SDS011;3968;51.424;6.788;2023-02-12T16:04:44;36.63;;;27.20;;
7845;SDS011;3968;51.424;6.788;2023-02-12T16:07:11;43.63;;;29.37;;
7845;SDS011;3968;51.424;6.788;2023-02-12T16:09:38;43.73;;;27.93;;
7845;SDS011;3968;51.424;6.788;2023-02-12T16:12:06;42.73;;;28.17;;
7845;SDS011;3968;51.424;6.788;2023-02-12T16:14:54;36.63;;;26.70;;
7845;SDS011;3968;51.424;6.788;2023-02-12T16:17:29;38.80;;;27.50;;
7845;SDS011;3968;51.424;6.788;2023-02-12T16:19:57;36.83;;;26.00;;
7845;SDS011;3968;51.424;6.788;2023-02-12T16:24:58;36.87;;;27.67;;
7845;SDS011;3968;51.424;6.788;2023-02-12T16:27:32;39.17;;;27.97;;
7845;SDS011;3968;51.424;6.788;2023-02-12T16:30:03;38.77;;;27.20;;
7845;SDS011;3968;51.424;6.788;2023-02-12T16:32:39;40.07;;;28.47;;
7845;SDS011;3968;51.424;6.788;2023-02-12T16:47:51;39.43;;;26.93;;
7845;SDS011;3968;51.424;6.788;2023-02-12T16:50:19;36.07;;;26.00;;
7845;SDS011;3968;51.424;6.788;2023-02-12T16:52:48;36.77;;;27.30;;
7845;SDS011;3968;51.424;6.788;2023-02-12T16:55:25;38.37;;;26.77;;
7845;SDS011;3968;51.424;6.788;2023-02-12T16:57:51;37.10;;;27.13;;
7845;SDS011;3968;51.424;6.788;2023-02-12T17:00:17;36.13;;;26.30;;
7845;SDS011;3968;51.424;6.788;2023-02-12T17:02:42;37.87;;;27.17;;
7845;SDS011;3968;51.424;6.788;2023-02-12T17:05:09;42.37;;;26.73;;
7845;SDS011;3968;51.424;6.788;2023-02-12T17:07:35;39.77;;;27.43;;
7845;SDS011;3968;51.424;6.788;2023-02-12T17:10:01;39.30;;;27.30;;
7845;SDS011;3968;51.424;6.788;2023-02-12T17:12:27;38.77;;;26.43;;
7845;SDS011;3968;51.424;6.788;2023-02-12T17:14:53;40.67;;;26.53;;
7845;SDS011;3968;51.424;6.788;2023-02-12T17:17:20;40.57;;;27.13;;
7845;SDS011;3968;51.424;6.788;2023-02-12T17:19:46;38.27;;;27.90;;
7845;SDS011;3968;51.424;6.788;2023-02-12T17:22:21;38.30;;;26.33;;
7845;SDS011;3968;51.424;6.788;2023-02-12T17:24:49;39.73;;;27.00;;
7845;SDS011;3968;51.424;6.788;2023-02-12T17:27:17;38.20;;;26.80;;
7845;SDS011;3968;51.424;6.788;2023-02-12T17:29:43;45.17;;;29.33;;
7845;SDS011;3968;51.424;6.788;2023-02-12T17:32:08;37.77;;;26.50;;
7845;SDS011;3968;51.424;6.788;2023-02-12T17:34:35;42.70;;;28.20;;
7845;SDS011;3968;51.424;6.788;2023-02-12T17:37:04;38.73;;;27.37;;
7845;SDS011;3968;51.424;6.788;2023-02-12T17:39:30;41.20;;;28.43;;
7845;SDS011;3968;51.424;6.788;2023-02-12T17:41:56;39.10;;;26.73;;
7845;SDS011;3968;51.424;6.788;2023-02-12T17:44:24;42.57;;;28.43;;
7845;SDS011;3968;51.424;6.788;2023-02-12T17:46:50;38.50;;;28.53;;
7845;SDS011;3968;51.424;6.788;2023-02-12T17:49:15;41.97;;;28.90;;
7845;SDS011;3968;51.424;6.788;2023-02-12T17:51:41;38.53;;;28.07;;
7845;SDS011;3968;51.424;6.788;2023-02-12T17:54:07;38.67;;;28.47;;
7845;SDS011;3968;51.424;6.788;2023-02-12T17:56:32;40.03;;;27.80;;
7845;SDS011;3968;51.424;6.788;2023-02-12T17:58:58;42.33;;;30.00;;
7845;SDS011;3968;51.424;6.788;2023-02-12T18:01:24;45.20;;;29.73;;
7845;SDS011;3968;51.424;6.788;2023-02-12T18:03:50;39.23;;;27.07;;
7845;SDS011;3968;51.424;6.788;2023-02-12T18:06:21;41.20;;;29.50;;
7845;SDS011;3968;51.424;6.788;2023-02-12T18:08:48;36.80;;;26.80;;